Time;durP1;ratioP1;P1;durP2;ratioP2;P2;SDS_P1;SDS_P2;PMS_P1;PMS_P2;Temp;Humidity;BMP_temperature;BMP_pressure;BME280_temperature;BME280_humidity;BME280_pressure;Samples;Min_cycle;Max_cycle;Signal;HPM_P1;HPM_P2
2023/08/22 00:00:41;;;;;;;8.80;4.50;;;17.50;99.90;;;;;;5002230;28;20560;-75
2023/08/22 00:03:06;;;;;;;9.15;4.45;;;17.50;99.90;;;;;;4998754;28;20147;-75
2023/08/22 00:05:32;;;;;;;9.65;4.43;;;17.50;99.90;;;;;;5009416;28;20066;-75
2023/08/22 00:07:59;;;;;;;7.57;4.32;;;17.50;99.90;;;;;;5002876;28;20395;-75
2023/08/22 00:10:26;;;;;;;10.73;4.50;;;17.60;99.90;;;;;;5000968;28;20679;-75
2023/08/22 00:12:52;;;;;;;10.32;5.32;;;17.60;99.90;;;;;;5006872;28;20041;-75
2023/08/22 00:15:18;;;;;;;8.40;4.78;;;17.60;99.90;;;;;;5014073;28;20034;-74
2023/08/22 00:17:44;;;;;;;8.32;5.45;;;17.70;99.90;;;;;;4997127;28;20038;-74
2023/08/22 00:20:11;;;;;;;8.93;5.30;;;17.70;99.90;;;;;;5011685;28;20054;-75
2023/08/22 00:22:37;;;;;;;9.00;5.20;;;17.70;99.90;;;;;;5021635;28;20068;-75
2023/08/22 00:25:04;;;;;;;9.80;5.00;;;17.70;99.90;;;;;;5031463;28;20045;-74
2023/08/22 00:27:30;;;;;;;10.88;5.82;;;17.70;99.90;;;;;;5032387;28;20116;-75
2023/08/22 00:29:57;;;;;;;9.05;5.03;;;17.70;99.90;;;;;;4998282;28;20045;-75
2023/08/22 00:32:23;;;;;;;10.93;5.20;;;17.50;99.90;;;;;;5000921;28;20074;-75
2023/08/22 00:34:49;;;;;;;10.13;4.90;;;17.70;99.90;;;;;;5012369;28;20042;-75
2023/08/22 00:37:15;;;;;;;8.13;4.90;;;17.70;99.90;;;;;;4987889;28;20038;-75
2023/08/22 00:39:40;;;;;;;11.35;6.10;;;17.60;99.90;;;;;;4994155;28;20045;-75
2023/08/22 00:42:06;;;;;;;11.25;5.55;;;17.70;99.90;;;;;;4972374;28;20065;-75
2023/08/22 00:44:32;;;;;;;11.07;5.05;;;17.60;99.90;;;;;;5005509;28;20450;-75
2023/08/22 00:46:58;;;;;;;9.00;5.18;;;17.60;99.90;;;;;;5003872;28;20050;-75
2023/08/22 00:49:25;;;;;;;7.47;4.85;;;17.60;99.90;;;;;;5023896;28;20045;-75
2023/08/22 00:51:52;;;;;;;7.40;5.28;;;17.60;99.90;;;;;;4983113;28;20125;-75
2023/08/22 00:54:19;;;;;;;6.18;4.88;;;17.60;99.90;;;;;;4995061;28;20030;-75
2023/08/22 00:56:45;;;;;;;10.63;4.95;;;17.60;99.90;;;;;;4998625;28;20042;-75
2023/08/22 00:59:12;;;;;;;8.68;5.22;;;17.60;99.90;;;;;;4991021;28;20065;-75
2023/08/22 01:01:38;;;;;;;10.13;5.43;;;17.60;99.90;;;;;;4999383;28;20105;-75
2023/08/22 01:04:04;;;;;;;8.43;5.05;;;17.50;99.90;;;;;;5020724;28;20080;-75
2023/08/22 01:06:56;;;;;;;7.70;5.50;;;17.60;99.90;;;;;;4985062;28;20115;-75
2023/08/22 01:09:44;;;;;;;9.10;4.80;;;17.60;99.90;;;;;;5001798;28;20046;-74
2023/08/22 01:12:24;;;;;;;10.13;5.10;;;17.50;99.90;;;;;;5024993;28;20041;-74
2023/08/22 01:15:26;;;;;;;7.10;4.80;;;17.60;99.90;;;;;;4994419;28;20097;-74
2023/08/22 01:17:57;;;;;;;8.00;4.78;;;17.50;99.90;;;;;;5021562;28;20042;-74
2023/08/22 01:20:24;;;;;;;7.97;4.63;;;17.50;99.90;;;;;;5014665;28;20050;-74
2023/08/22 01:22:50;;;;;;;7.82;4.60;;;17.50;99.90;;;;;;4987113;28;20419;-74
2023/08/22 01:25:16;;;;;;;10.80;4.85;;;17.50;99.90;;;;;;5010101;28;20053;-74
2023/08/22 01:28:19;;;;;;;10.35;4.75;;;17.40;99.90;;;;;;5016980;28;20056;-74
2023/08/22 01:30:58;;;;;;;5.13;4.10;;;17.40;99.90;;;;;;5012164;28;20055;-74
2023/08/22 01:33:31;;;;;;;6.45;3.95;;;17.40;99.90;;;;;;4996727;28;21530;-74
2023/08/22 01:35:57;;;;;;;8.88;3.97;;;17.40;99.90;;;;;;5010124;28;20518;-74
2023/08/22 01:38:27;;;;;;;6.93;3.92;;;17.40;99.90;;;;;;4955665;28;20042;-75
2023/08/22 01:40:54;;;;;;;6.00;3.72;;;17.40;99.90;;;;;;5007737;28;20042;-74
2023/08/22 01:43:21;;;;;;;6.53;3.97;;;17.50;99.90;;;;;;5028796;28;20046;-74
2023/08/22 01:45:47;;;;;;;9.45;4.45;;;17.40;99.90;;;;;;5019272;28;20074;-74
2023/08/22 01:48:13;;;;;;;6.55;3.65;;;17.50;99.90;;;;;;4998125;28;20181;-74
2023/08/22 01:50:39;;;;;;;6.93;3.63;;;17.40;99.90;;;;;;4990210;28;20062;-74
2023/08/22 01:53:04;;;;;;;7.55;3.25;;;17.40;99.90;;;;;;5018803;28;20046;-75
2023/08/22 01:55:30;;;;;;;8.68;3.20;;;17.40;99.90;;;;;;5009308;28;20038;-74
2023/08/22 01:57:56;;;;;;;3.22;2.88;;;17.40;99.90;;;;;;5014469;28;20038;-74
2023/08/22 02:00:21;;;;;;;6.32;3.95;;;17.40;99.90;;;;;;4965626;28;20046;-74
2023/08/22 02:02:47;;;;;;;6.07;3.22;;;17.40;99.90;;;;;;5029289;28;20052;-74
2023/08/22 02:05:13;;;;;;;7.63;3.70;;;17.30;99.90;;;;;;5013873;28;20045;-74
2023/08/22 02:07:39;;;;;;;6.30;3.63;;;17.30;99.90;;;;;;5023037;28;20038;-74
2023/08/22 02:10:05;;;;;;;14.23;3.85;;;17.30;99.90;;;;;;5015049;28;20075;-74
2023/08/22 02:12:32;;;;;;;5.75;3.00;;;17.30;99.90;;;;;;5009941;28;20488;-75
2023/08/22 02:14:57;;;;;;;8.40;3.22;;;17.20;99.90;;;;;;5010202;28;20050;-74
2023/08/22 02:17:23;;;;;;;7.82;3.42;;;17.20;99.90;;;;;;5027163;28;20041;-75
2023/08/22 02:19:49;;;;;;;4.60;2.70;;;17.20;99.90;;;;;;4994984;28;20503;-74
2023/08/22 02:22:14;;;;;;;5.65;3.47;;;17.20;99.90;;;;;;4993944;28;20080;-74
2023/08/22 02:24:40;;;;;;;4.55;2.80;;;17.10;99.90;;;;;;5019952;28;20384;-75
2023/08/22 02:27:06;;;;;;;9.75;2.75;;;17.10;99.90;;;;;;5000085;28;20038;-74
2023/08/22 02:29:32;;;;;;;6.22;2.80;;;17.10;99.90;;;;;;4990379;28;20474;-75
2023/08/22 02:31:58;;;;;;;9.52;2.97;;;17.10;99.90;;;;;;4994981;28;20081;-75
2023/08/22 02:34:25;;;;;;;6.15;2.88;;;17.10;99.90;;;;;;4998678;28;20061;-75
2023/08/22 02:36:50;;;;;;;5.22;2.50;;;17.10;99.90;;;;;;4990605;28;20580;-74
2023/08/22 02:39:17;;;;;;;4.32;2.30;;;17.10;99.90;;;;;;4989246;28;20503;-74
2023/08/22 02:41:42;;;;;;;3.70;2.42;;;17.00;99.90;;;;;;4995543;28;20057;-74
2023/08/22 02:44:08;;;;;;;6.55;2.53;;;17.00;99.90;;;;;;4999672;28;20400;-75
2023/08/22 02:46:34;;;;;;;3.33;2.20;;;17.00;99.90;;;;;;4991435;28;20092;-75
2023/08/22 02:49:00;;;;;;;5.43;2.45;;;16.90;99.90;;;;;;4999103;28;20180;-75
2023/08/22 02:51:27;;;;;;;5.97;2.63;;;16.90;99.90;;;;;;5014331;28;20130;-75
2023/08/22 02:53:53;;;;;;;6.43;2.53;;;16.90;99.90;;;;;;4986169;28;20041;-73
2023/08/22 02:56:18;;;;;;;6.00;2.38;;;16.90;99.90;;;;;;5000411;28;20037;-73
2023/08/22 02:58:46;;;;;;;6.78;2.97;;;16.90;99.90;;;;;;5010667;28;20073;-73
2023/08/22 03:01:12;;;;;;;6.13;3.03;;;16.90;99.90;;;;;;4992390;28;20050;-73
2023/08/22 03:03:38;;;;;;;6.03;2.80;;;16.90;99.90;;;;;;4956874;28;20520;-73
2023/08/22 03:06:04;;;;;;;7.63;3.03;;;16.90;99.90;;;;;;5006760;28;20152;-73
2023/08/22 03:08:30;;;;;;;6.07;3.00;;;16.80;99.90;;;;;;5004180;28;20035;-73
2023/08/22 03:11:02;;;;;;;3.55;2.67;;;16.80;99.90;;;;;;4989665;28;20546;-73
2023/08/22 03:13:28;;;;;;;5.70;3.42;;;16.90;99.90;;;;;;5004383;28;21317;-73
2023/08/22 03:15:55;;;;;;;4.93;2.60;;;16.90;99.90;;;;;;5009218;28;20117;-73
2023/08/22 03:18:21;;;;;;;4.53;2.65;;;16.90;99.90;;;;;;5000656;28;20112;-73
2023/08/22 03:20:46;;;;;;;9.48;2.67;;;16.90;99.90;;;;;;5027441;28;20523;-73
2023/08/22 03:23:14;;;;;;;9.18;3.05;;;16.90;99.90;;;;;;5005619;28;20038;-73
2023/08/22 03:25:40;;;;;;;4.63;2.85;;;16.80;99.90;;;;;;5006893;28;20129;-73
2023/08/22 03:28:05;;;;;;;6.43;3.05;;;16.80;99.90;;;;;;4997259;28;20070;-73
2023/08/22 03:30:31;;;;;;;6.50;3.05;;;16.80;99.90;;;;;;5016805;28;20060;-73
2023/08/22 03:32:57;;;;;;;5.95;3.22;;;16.70;99.90;;;;;;4983727;28;20097;-72
2023/08/22 03:35:23;;;;;;;8.35;2.95;;;16.70;99.90;;;;;;4987101;28;20034;-73
2023/08/22 03:37:48;;;;;;;5.97;3.20;;;16.70;99.90;;;;;;5026359;28;20053;-72
2023/08/22 03:40:14;;;;;;;5.10;2.70;;;16.70;99.90;;;;;;5005193;28;20049;-72
2023/08/22 03:42:40;;;;;;;5.32;3.30;;;16.80;99.90;;;;;;5022091;28;20050;-72
2023/08/22 03:45:07;;;;;;;7.20;2.83;;;16.80;99.90;;;;;;4984864;28;20073;-72
2023/08/22 03:47:33;;;;;;;8.25;2.90;;;16.70;99.90;;;;;;5023115;28;20054;-72
2023/08/22 03:49:58;;;;;;;6.57;2.83;;;16.70;99.90;;;;;;5014864;28;20048;-72
2023/08/22 03:52:24;;;;;;;5.22;2.88;;;16.60;99.90;;;;;;5023537;28;20045;-72
2023/08/22 03:54:50;;;;;;;3.80;2.42;;;16.70;99.90;;;;;;4998596;28;20038;-72
2023/08/22 03:57:15;;;;;;;7.75;3.30;;;16.70;99.90;;;;;;5022388;28;20080;-73
2023/08/22 03:59:41;;;;;;;5.28;2.75;;;16.70;99.90;;;;;;5001382;28;20042;-72
2023/08/22 04:02:07;;;;;;;7.75;2.92;;;16.60;99.90;;;;;;5004956;28;20177;-73
2023/08/22 04:04:32;;;;;;;4.55;2.72;;;16.60;99.90;;;;;;5002971;28;20077;-73
2023/08/22 04:06:58;;;;;;;5.30;2.83;;;16.60;99.90;;;;;;5021142;28;20042;-73
2023/08/22 04:09:24;;;;;;;4.20;3.05;;;16.70;99.90;;;;;;5030199;28;20065;-72
2023/08/22 04:11:49;;;;;;;8.43;3.03;;;16.60;99.90;;;;;;5022009;28;20079;-72
2023/08/22 04:14:15;;;;;;;4.93;2.78;;;16.60;99.90;;;;;;4998484;28;20118;-72
2023/08/22 04:16:41;;;;;;;5.43;3.42;;;16.60;99.90;;;;;;4989876;28;20380;-72
2023/08/22 04:19:07;;;;;;;8.40;3.78;;;16.50;99.90;;;;;;5027401;28;20173;-72
2023/08/22 04:21:32;;;;;;;8.25;3.50;;;16.50;99.90;;;;;;4977722;28;20148;-72
2023/08/22 04:23:58;;;;;;;5.85;3.70;;;16.50;99.90;;;;;;5021574;28;20052;-72
2023/08/22 04:26:24;;;;;;;7.65;3.67;;;16.50;99.90;;;;;;5008096;28;20053;-72
2023/08/22 04:28:49;;;;;;;7.32;3.78;;;16.40;99.90;;;;;;5004072;28;20395;-72
2023/08/22 04:31:15;;;;;;;7.95;3.75;;;16.40;99.90;;;;;;4988772;28;20091;-72
2023/08/22 04:33:41;;;;;;;9.55;4.25;;;16.30;99.90;;;;;;4971404;28;20538;-72
2023/08/22 04:36:07;;;;;;;5.93;3.92;;;16.30;99.90;;;;;;4989358;28;20038;-73
2023/08/22 04:38:32;;;;;;;5.70;3.33;;;16.30;99.90;;;;;;5004259;28;20034;-72
2023/08/22 04:40:58;;;;;;;7.72;3.67;;;16.20;99.90;;;;;;5041951;28;20045;-72
2023/08/22 04:43:24;;;;;;;7.05;3.78;;;16.20;99.90;;;;;;4997431;28;20042;-72
2023/08/22 04:45:52;;;;;;;5.18;3.70;;;16.10;99.90;;;;;;5000600;28;20133;-72
2023/08/22 04:48:18;;;;;;;8.60;4.20;;;16.10;99.90;;;;;;4989162;28;20656;-72
2023/08/22 04:50:44;;;;;;;8.35;4.50;;;16.00;99.90;;;;;;4988749;28;20057;-72
2023/08/22 04:53:10;;;;;;;10.77;5.18;;;16.00;99.90;;;;;;4977321;28;20572;-72
2023/08/22 04:55:35;;;;;;;10.15;5.03;;;16.00;99.90;;;;;;4986858;28;20060;-72
2023/08/22 04:58:01;;;;;;;10.10;6.00;;;16.00;99.90;;;;;;4988826;28;20484;-72
2023/08/22 05:00:27;;;;;;;13.13;7.32;;;16.00;99.90;;;;;;5034943;28;20053;-72
2023/08/22 05:02:52;;;;;;;12.45;7.82;;;16.00;99.90;;;;;;4999066;28;20100;-72
2023/08/22 05:05:18;;;;;;;13.65;9.07;;;16.00;99.90;;;;;;4985595;28;20034;-72
2023/08/22 05:07:44;;;;;;;12.18;8.25;;;16.00;99.90;;;;;;4994953;28;20078;-73
2023/08/22 05:10:10;;;;;;;13.25;8.93;;;16.00;99.90;;;;;;4990283;28;20046;-73
2023/08/22 05:12:36;;;;;;;13.43;8.43;;;16.00;99.90;;;;;;5014194;28;20034;-72
2023/08/22 05:15:02;;;;;;;15.82;9.45;;;16.00;99.90;;;;;;4982393;28;20038;-73
2023/08/22 05:17:28;;;;;;;15.32;10.02;;;16.00;99.90;;;;;;5005057;28;20120;-73
2023/08/22 05:19:53;;;;;;;18.40;10.88;;;16.00;99.90;;;;;;5011322;28;20077;-73
2023/08/22 05:22:19;;;;;;;17.00;10.70;;;16.00;99.90;;;;;;4982947;28;20052;-73
2023/08/22 05:24:45;;;;;;;19.80;10.43;;;16.00;99.90;;;;;;4997613;28;20517;-73
2023/08/22 05:27:10;;;;;;;19.40;10.18;;;16.10;99.90;;;;;;4992269;28;20123;-73
2023/08/22 05:29:36;;;;;;;17.90;11.38;;;16.10;99.90;;;;;;4992697;28;20038;-72
2023/08/22 05:32:02;;;;;;;16.45;10.18;;;16.10;99.90;;;;;;5020469;28;20432;-72
2023/08/22 05:34:27;;;;;;;17.85;9.70;;;16.20;99.90;;;;;;4989590;28;20133;-73
2023/08/22 05:36:53;;;;;;;14.65;9.93;;;16.10;99.90;;;;;;4994965;28;20031;-73
2023/08/22 05:39:19;;;;;;;16.92;10.23;;;16.10;99.90;;;;;;4985565;28;20432;-73
2023/08/22 05:41:45;;;;;;;13.85;10.18;;;16.10;99.90;;;;;;4972560;28;20052;-73
2023/08/22 05:44:10;;;;;;;19.13;10.82;;;16.20;99.90;;;;;;4972809;28;20475;-72
2023/08/22 05:46:36;;;;;;;14.10;10.00;;;16.20;99.90;;;;;;4974922;28;20061;-73
2023/08/22 05:49:02;;;;;;;17.10;11.52;;;16.20;99.90;;;;;;5017919;28;20583;-73
2023/08/22 05:51:27;;;;;;;17.65;11.35;;;16.20;99.90;;;;;;5020871;28;20052;-72
2023/08/22 05:53:53;;;;;;;21.45;12.40;;;16.30;99.90;;;;;;4985578;28;20034;-73
2023/08/22 05:56:19;;;;;;;18.35;13.60;;;16.30;99.90;;;;;;4973404;28;20052;-73
2023/08/22 05:58:44;;;;;;;19.75;12.77;;;16.40;99.90;;;;;;5001000;28;20044;-73
2023/08/22 06:01:10;;;;;;;17.88;12.75;;;16.50;99.90;;;;;;5021728;28;20061;-73
2023/08/22 06:03:38;;;;;;;16.63;13.02;;;16.50;99.90;;;;;;5011643;28;20531;-73
2023/08/22 06:06:04;;;;;;;22.33;13.13;;;16.60;99.90;;;;;;5005799;28;20048;-72
2023/08/22 06:08:30;;;;;;;24.02;13.07;;;16.70;99.90;;;;;;5000778;28;20042;-73
2023/08/22 06:10:56;;;;;;;20.98;13.48;;;16.70;99.90;;;;;;4996209;28;20093;-73
2023/08/22 06:13:22;;;;;;;22.23;12.93;;;16.80;99.90;;;;;;4988197;28;20045;-72
2023/08/22 06:15:47;;;;;;;19.25;12.75;;;16.90;99.90;;;;;;4997608;28;20033;-73
2023/08/22 06:18:13;;;;;;;19.48;12.30;;;17.00;99.90;;;;;;4977410;28;20046;-73
2023/08/22 06:20:39;;;;;;;19.20;13.18;;;17.10;99.90;;;;;;4990132;28;20408;-72
2023/08/22 06:23:06;;;;;;;18.10;12.70;;;17.30;99.90;;;;;;5004848;28;20280;-72
2023/08/22 06:25:35;;;;;;;20.02;12.77;;;17.30;99.90;;;;;;4979231;28;20466;-72
2023/08/22 06:28:00;;;;;;;17.40;12.32;;;17.40;99.90;;;;;;4998417;28;20042;-73
2023/08/22 06:30:27;;;;;;;21.23;12.13;;;17.50;99.90;;;;;;5019980;28;20038;-72
2023/08/22 06:32:53;;;;;;;15.10;12.45;;;17.70;99.90;;;;;;5002793;28;20042;-72
2023/08/22 06:35:18;;;;;;;20.42;12.23;;;17.80;99.90;;;;;;5008707;28;20072;-73
2023/08/22 06:37:44;;;;;;;16.77;11.80;;;17.80;99.90;;;;;;4992389;28;20042;-72
2023/08/22 06:40:11;;;;;;;18.20;12.13;;;17.90;99.90;;;;;;5024627;28;20566;-72
2023/08/22 06:42:40;;;;;;;17.92;11.25;;;18.00;99.90;;;;;;4996399;28;20074;-72
2023/08/22 06:45:06;;;;;;;21.35;11.38;;;18.10;99.90;;;;;;4991754;28;20070;-72
2023/08/22 06:47:31;;;;;;;20.65;12.68;;;18.10;99.90;;;;;;4997423;28;20511;-72
2023/08/22 06:49:57;;;;;;;14.35;9.73;;;18.20;99.90;;;;;;5037441;28;20046;-72
2023/08/22 06:52:23;;;;;;;18.27;10.40;;;18.20;99.90;;;;;;5048157;28;20045;-72
2023/08/22 06:54:49;;;;;;;17.85;10.25;;;18.40;99.90;;;;;;5028031;28;20026;-72
2023/08/22 06:57:14;;;;;;;17.05;9.68;;;18.40;99.90;;;;;;5010191;28;20041;-72
2023/08/22 06:59:40;;;;;;;16.25;10.55;;;18.50;99.90;;;;;;5026837;28;20051;-72
2023/08/22 07:02:06;;;;;;;17.30;11.13;;;18.60;99.90;;;;;;4998527;28;20070;-73
2023/08/22 07:04:31;;;;;;;18.38;10.57;;;18.70;99.90;;;;;;5024681;28;20376;-73
2023/08/22 07:06:57;;;;;;;18.50;9.93;;;18.80;99.90;;;;;;4998824;28;20038;-73
2023/08/22 07:09:23;;;;;;;15.38;10.45;;;18.90;99.90;;;;;;5031145;28;20075;-73
2023/08/22 07:11:48;;;;;;;15.25;9.65;;;19.00;99.90;;;;;;5013675;28;20112;-73
2023/08/22 07:14:14;;;;;;;12.10;9.25;;;19.00;99.90;;;;;;5023074;28;20037;-73
2023/08/22 07:16:40;;;;;;;15.02;9.57;;;19.00;99.90;;;;;;5043790;28;20164;-73
2023/08/22 07:19:05;;;;;;;14.27;9.18;;;19.10;99.90;;;;;;4993421;28;20037;-73
2023/08/22 07:21:31;;;;;;;17.17;8.70;;;19.10;99.90;;;;;;4988090;28;20056;-73
2023/08/22 07:23:57;;;;;;;12.13;8.93;;;19.20;99.90;;;;;;4991887;28;20501;-73
2023/08/22 07:26:23;;;;;;;16.77;9.32;;;19.40;99.90;;;;;;5016842;28;20041;-73
2023/08/22 07:28:49;;;;;;;15.10;8.82;;;19.50;99.90;;;;;;5007612;28;20048;-75
2023/08/22 07:31:15;;;;;;;16.10;7.75;;;19.80;99.90;;;;;;5023588;28;20066;-79
2023/08/22 07:33:41;;;;;;;14.75;7.70;;;20.00;99.90;;;;;;5001486;28;20117;-78
2023/08/22 07:36:15;;;;;;;13.77;7.80;;;20.10;99.90;;;;;;5017802;28;20113;-77
2023/08/22 07:38:41;;;;;;;10.75;7.82;;;20.30;99.90;;;;;;5000374;28;20038;-77
2023/08/22 07:41:06;;;;;;;14.00;7.78;;;20.50;99.90;;;;;;5008372;28;20057;-77
2023/08/22 07:43:33;;;;;;;10.93;7.28;;;20.60;99.90;;;;;;5015706;28;20077;-79
2023/08/22 07:45:59;;;;;;;10.13;8.30;;;20.70;99.90;;;;;;5023740;28;20537;-80
2023/08/22 07:48:25;;;;;;;10.35;7.22;;;20.90;99.90;;;;;;5002669;28;20046;-75
2023/08/22 07:50:51;;;;;;;12.05;7.07;;;21.00;99.90;;;;;;4971291;28;20487;-76
2023/08/22 07:53:16;;;;;;;11.57;6.35;;;21.20;99.90;;;;;;5015980;28;20084;-79
2023/08/22 07:55:47;;;;;;;9.45;6.47;;;21.30;99.90;;;;;;4992233;28;20076;-80
2023/08/22 07:58:13;;;;;;;14.32;7.15;;;21.40;99.90;;;;;;4996775;28;20038;-80
2023/08/22 08:00:39;;;;;;;12.40;6.40;;;21.50;99.90;;;;;;5017657;28;20128;-77
2023/08/22 08:03:04;;;;;;;11.00;6.65;;;21.60;99.90;;;;;;4986699;28;20121;-81
2023/08/22 08:05:30;;;;;;;9.65;5.60;;;21.80;99.90;;;;;;5020007;28;20481;-74
2023/08/22 08:07:56;;;;;;;9.07;4.88;;;21.90;99.90;;;;;;4981706;28;20514;-74
2023/08/22 08:10:22;;;;;;;9.00;5.32;;;21.90;99.90;;;;;;4987170;28;20121;-73
2023/08/22 08:12:47;;;;;;;9.73;5.30;;;22.00;99.90;;;;;;5003351;28;20049;-73
2023/08/22 08:15:13;;;;;;;8.40;5.47;;;22.00;99.90;;;;;;5007471;28;20041;-73
2023/08/22 08:17:39;;;;;;;14.40;5.53;;;22.00;99.90;;;;;;5017068;28;20049;-68
2023/08/22 08:20:05;;;;;;;8.02;4.93;;;22.10;99.90;;;;;;5008096;28;20046;-71
2023/08/22 08:22:31;;;;;;;6.70;4.18;;;22.00;99.90;;;;;;4989730;28;20089;-70
2023/08/22 08:24:57;;;;;;;7.00;3.72;;;22.00;99.90;;;;;;5008086;28;20128;-69
2023/08/22 08:27:22;;;;;;;10.10;4.07;;;21.90;99.90;;;;;;4987554;28;20045;-69
2023/08/22 08:29:48;;;;;;;8.30;4.47;;;21.90;99.90;;;;;;4992710;28;21296;-69
2023/08/22 08:32:14;;;;;;;8.13;3.55;;;21.90;99.90;;;;;;5021829;28;20040;-69
2023/08/22 08:34:40;;;;;;;6.63;3.20;;;21.80;99.90;;;;;;5007682;28;20047;-70
2023/08/22 08:37:05;;;;;;;7.88;3.28;;;21.90;99.90;;;;;;5007469;28;20077;-69
2023/08/22 08:39:31;;;;;;;6.95;2.85;;;21.90;99.90;;;;;;5006606;28;20046;-70
2023/08/22 08:42:10;;;;;;;5.00;2.42;;;21.90;99.90;;;;;;5022842;28;20049;-70
2023/08/22 08:44:36;;;;;;;4.65;2.38;;;21.90;99.90;;;;;;4987596;28;20046;-71
2023/08/22 08:47:03;;;;;;;8.30;2.85;;;21.90;99.90;;;;;;5007864;28;20470;-70
2023/08/22 08:49:33;;;;;;;8.90;2.70;;;21.90;99.90;;;;;;5012916;28;20072;-69
2023/08/22 08:52:02;;;;;;;3.38;2.40;;;22.00;99.90;;;;;;5013243;28;21010;-69
2023/08/22 08:54:31;;;;;;;4.53;3.50;;;22.00;99.90;;;;;;5038594;28;20060;-70
2023/08/22 08:56:57;;;;;;;5.38;2.60;;;22.00;99.90;;;;;;5006176;28;20084;-69
2023/08/22 08:59:23;;;;;;;4.43;2.40;;;22.10;99.90;;;;;;5035578;28;20486;-70
2023/08/22 09:01:52;;;;;;;6.15;2.97;;;22.30;99.90;;;;;;5004040;28;20050;-69
2023/08/22 09:04:19;;;;;;;3.30;2.10;;;22.40;99.90;;;;;;5040489;28;20042;-73
2023/08/22 09:06:46;;;;;;;6.00;2.25;;;22.50;99.90;;;;;;5002581;28;20041;-71
2023/08/22 09:09:13;;;;;;;6.22;3.30;;;22.50;99.90;;;;;;5003921;28;20392;-71
2023/08/22 09:11:47;;;;;;;6.70;2.58;;;22.50;99.90;;;;;;5008891;28;20034;-71
2023/08/22 09:14:19;;;;;;;5.07;2.58;;;22.50;99.90;;;;;;5038254;28;20068;-70
2023/08/22 09:16:46;;;;;;;2.80;1.80;;;22.40;99.90;;;;;;5003885;28;20168;-71
2023/08/22 09:19:15;;;;;;;3.35;2.03;;;22.40;99.90;;;;;;5005466;28;20080;-71
2023/08/22 09:21:57;;;;;;;4.95;1.65;;;22.40;99.90;;;;;;5005474;28;20052;-77
2023/08/22 09:24:24;;;;;;;2.92;1.63;;;22.60;99.90;;;;;;5001009;28;20050;-77
2023/08/22 09:26:50;;;;;;;4.43;1.85;;;22.80;99.90;;;;;;5010274;28;20042;-77
2023/08/22 09:29:28;;;;;;;2.90;1.70;;;23.00;99.90;;;;;;4994508;28;20042;-76
2023/08/22 09:32:04;;;;;;;2.00;1.48;;;23.00;99.90;;;;;;5009104;28;20449;-77
2023/08/22 09:34:31;;;;;;;1.90;1.60;;;22.90;99.90;;;;;;5027353;28;20044;-77
2023/08/22 09:36:57;;;;;;;2.45;1.70;;;22.80;99.90;;;;;;4978008;28;20088;-78
2023/08/22 09:39:24;;;;;;;2.70;1.30;;;22.70;99.90;;;;;;4970843;28;20038;-77
2023/08/22 09:41:54;;;;;;;4.72;1.80;;;22.90;99.90;;;;;;5004706;28;20108;-78
2023/08/22 09:44:25;;;;;;;3.13;1.77;;;23.10;99.90;;;;;;5024103;28;20097;-77
2023/08/22 09:46:52;;;;;;;5.00;1.80;;;23.20;99.90;;;;;;5036880;28;20402;-78
2023/08/22 09:49:19;;;;;;;3.25;1.80;;;23.40;99.90;;;;;;5042209;28;20054;-77
2023/08/22 09:51:47;;;;;;;2.00;1.60;;;23.60;99.90;;;;;;5011064;28;20491;-77
2023/08/22 09:54:16;;;;;;;2.20;1.40;;;23.70;99.90;;;;;;5021992;28;20038;-77
2023/08/22 09:56:43;;;;;;;2.03;1.50;;;23.80;99.90;;;;;;4999933;28;20487;-76
2023/08/22 09:59:15;;;;;;;4.38;1.67;;;23.90;99.90;;;;;;5026207;28;20042;-80
2023/08/22 10:01:42;;;;;;;4.13;1.70;;;24.00;99.90;;;;;;4993751;28;20038;-77
2023/08/22 10:04:08;;;;;;;3.03;1.70;;;24.00;99.90;;;;;;5010834;28;20281;-77
2023/08/22 10:06:36;;;;;;;3.70;1.77;;;24.20;99.90;;;;;;5034840;28;20052;-77
2023/08/22 10:09:07;;;;;;;5.00;2.00;;;24.30;99.80;;;;;;5013161;28;20042;-76
2023/08/22 10:11:55;;;;;;;3.42;1.85;;;24.20;99.20;;;;;;4994460;28;20545;-77
2023/08/22 10:14:43;;;;;;;3.90;2.05;;;24.00;99.60;;;;;;4996325;28;20038;-80
2023/08/22 10:17:14;;;;;;;4.90;2.15;;;23.80;99.40;;;;;;5005009;28;20499;-80
2023/08/22 10:19:41;;;;;;;4.80;2.00;;;23.70;99.50;;;;;;5000861;28;20053;-76
2023/08/22 10:22:11;;;;;;;3.05;1.98;;;23.80;99.90;;;;;;5040878;28;20048;-77
2023/08/22 10:24:37;;;;;;;4.13;2.53;;;24.10;99.90;;;;;;5019163;28;20050;-76
2023/08/22 10:27:12;;;;;;;2.35;1.98;;;24.30;99.90;;;;;;4988897;28;20034;-77
2023/08/22 10:30:13;;;;;;;5.72;1.95;;;24.60;99.90;;;;;;5025569;28;20068;-79
2023/08/22 10:32:39;;;;;;;4.20;1.60;;;24.70;99.90;;;;;;5024598;28;20033;-79
2023/08/22 10:35:13;;;;;;;4.43;2.17;;;24.60;99.90;;;;;;4974624;28;20384;-79
2023/08/22 10:37:50;;;;;;;5.40;2.35;;;24.60;99.90;;;;;;5007515;28;20049;-79
2023/08/22 10:40:30;;;;;;;8.80;2.60;;;24.30;99.90;;;;;;4986531;28;20137;-79
2023/08/22 10:43:08;;;;;;;2.75;1.67;;;24.10;99.20;;;;;;5034530;28;20046;-78
2023/08/22 10:45:52;;;;;;;7.03;2.20;;;24.10;99.50;;;;;;5027412;28;20073;-77
2023/08/22 10:48:21;;;;;;;3.72;2.30;;;24.30;99.90;;;;;;5024031;28;20132;-79
2023/08/22 10:50:48;;;;;;;4.05;2.25;;;24.30;99.90;;;;;;4982111;28;20049;-79
2023/08/22 10:53:23;;;;;;;3.60;1.98;;;24.20;99.00;;;;;;5013393;28;20076;-78
2023/08/22 10:55:50;;;;;;;5.40;2.08;;;24.20;99.40;;;;;;5005702;28;20499;-79
2023/08/22 10:58:40;;;;;;;4.00;1.73;;;24.30;99.50;;;;;;5008261;28;20044;-79
2023/08/22 11:01:15;;;;;;;4.32;1.90;;;24.20;99.00;;;;;;4998931;28;20057;-79
2023/08/22 11:03:42;;;;;;;3.17;1.92;;;24.00;98.70;;;;;;5038372;28;20052;-79
2023/08/22 11:06:18;;;;;;;4.18;2.08;;;23.90;99.10;;;;;;5009178;28;20041;-80
2023/08/22 11:08:44;;;;;;;3.78;2.15;;;23.90;98.90;;;;;;4991362;28;20388;-79
2023/08/22 11:11:15;;;;;;;3.47;2.00;;;23.80;99.80;;;;;;4994587;28;20052;-75
2023/08/22 11:13:42;;;;;;;4.82;1.95;;;23.80;99.70;;;;;;5007788;28;20044;-76
2023/08/22 11:16:11;;;;;;;6.07;2.50;;;23.80;99.90;;;;;;5008877;28;20128;-79
2023/08/22 11:18:38;;;;;;;5.07;1.92;;;23.90;99.60;;;;;;5008724;28;20099;-79
2023/08/22 11:21:04;;;;;;;6.07;2.20;;;24.10;99.90;;;;;;5008801;28;20412;-79
2023/08/22 11:23:32;;;;;;;4.43;2.08;;;24.40;99.90;;;;;;4992419;28;20051;-79
2023/08/22 11:25:58;;;;;;;2.88;1.40;;;24.60;99.90;;;;;;5007682;28;20029;-79
2023/08/22 11:28:34;;;;;;;5.85;2.17;;;24.80;99.90;;;;;;5025288;28;20593;-79
2023/08/22 11:31:01;;;;;;;4.50;2.90;;;25.10;99.20;;;;;;4980121;28;20051;-75
2023/08/22 11:33:45;;;;;;;6.43;1.98;;;25.20;98.90;;;;;;5007138;28;20533;-78
2023/08/22 11:36:11;;;;;;;3.97;2.00;;;25.20;98.70;;;;;;5009098;28;20424;-77
2023/08/22 11:38:36;;;;;;;6.53;2.10;;;25.40;98.20;;;;;;5009196;28;20621;-78
2023/08/22 11:41:04;;;;;;;2.70;1.65;;;25.40;97.80;;;;;;5036636;28;20095;-74
2023/08/22 11:43:31;;;;;;;2.72;1.45;;;25.30;97.30;;;;;;4995659;28;20097;-74
2023/08/22 11:45:59;;;;;;;2.70;1.27;;;25.40;97.60;;;;;;4963064;28;20034;-74
2023/08/22 11:48:25;;;;;;;2.60;1.80;;;25.50;97.20;;;;;;4989961;28;20124;-76
2023/08/22 11:50:51;;;;;;;3.50;1.52;;;25.60;97.20;;;;;;4990622;28;20152;-75
2023/08/22 11:53:17;;;;;;;3.42;1.67;;;25.60;97.20;;;;;;4989060;28;20034;-75
2023/08/22 11:55:44;;;;;;;1.85;1.48;;;25.70;97.30;;;;;;4987687;28;20036;-76
2023/08/22 11:58:16;;;;;;;3.50;1.77;;;25.90;97.30;;;;;;5008717;28;20388;-75
2023/08/22 12:00:42;;;;;;;3.97;2.15;;;26.10;97.60;;;;;;4992315;28;20045;-77
2023/08/22 12:03:09;;;;;;;4.15;1.95;;;26.10;97.10;;;;;;5006328;28;20041;-78
2023/08/22 12:05:40;;;;;;;3.60;1.83;;;26.20;96.90;;;;;;5009221;28;20050;-77
2023/08/22 12:08:06;;;;;;;2.13;1.55;;;26.20;95.90;;;;;;4991990;28;20049;-74
2023/08/22 12:10:42;;;;;;;1.77;1.48;;;26.20;96.10;;;;;;4989291;28;20095;-73
2023/08/22 12:13:09;;;;;;;3.22;1.50;;;26.30;94.70;;;;;;5021037;28;20399;-74
2023/08/22 12:15:35;;;;;;;3.20;1.13;;;26.30;93.70;;;;;;5005012;28;20124;-70
2023/08/22 12:18:04;;;;;;;3.75;1.40;;;26.20;94.20;;;;;;5036430;28;20121;-74
2023/08/22 12:20:30;;;;;;;1.50;1.10;;;26.30;94.50;;;;;;5039237;28;20045;-72
2023/08/22 12:22:56;;;;;;;3.05;1.20;;;26.40;94.40;;;;;;5009471;28;20044;-76
2023/08/22 12:25:21;;;;;;;3.03;1.23;;;26.20;92.80;;;;;;4988984;28;20042;-76
2023/08/22 12:27:48;;;;;;;2.80;1.13;;;26.10;93.40;;;;;;4973406;28;20034;-77
2023/08/22 12:30:14;;;;;;;2.45;1.30;;;26.10;93.70;;;;;;5007123;28;20095;-75
2023/08/22 12:32:44;;;;;;;2.03;1.50;;;26.10;93.80;;;;;;5011525;28;20046;-75
2023/08/22 12:35:10;;;;;;;2.20;1.10;;;26.00;93.00;;;;;;5010254;28;20029;-74
2023/08/22 12:37:40;;;;;;;1.58;1.05;;;26.00;93.30;;;;;;5000310;28;20063;-73
2023/08/22 12:40:12;;;;;;;2.42;1.40;;;26.00;93.20;;;;;;5028294;28;20155;-71
2023/08/22 12:42:41;;;;;;;1.63;0.98;;;26.10;93.30;;;;;;5012171;28;20033;-71
2023/08/22 12:45:08;;;;;;;1.40;1.10;;;26.20;93.00;;;;;;4997314;28;20045;-75